Fort Fisher — WCZ6290 — position and weather

sailwx.info

Track history (hours):
 
Tides and Currents Weather Stations Pressure Air Temp Water Temp Dewpoint Dewpoint Depression Visibility Wind Speed Wind Dir Waves Ship Positions

Fort Fisher

Owner: STATE OF NORTH CAROLINA DEPT OF TRANSPORTATION FERRY DIVISION, Havelock, NC. More information available from US FCC via Universal Licensing System and Coast Guard Vessel Documentation Center.

Last reported at 2018-Jul-12 09:55 UTC. Time now 2018-Aug-15 02:59 UTC.
Position N 33°58' W 077°56'.
Warning: this ship's position is 33 days out of date.

Length 52 m; draft 3.2 m.

Type: Passenger vessel. MMSI: 367432480.

Date/timePositionNaut miles runAvg speedWind from/ knotsBaromVisibWave heightAir tempDewpointWater temp
2018-Jul-12 09:55N 33°58' W 077°56'0 0.0
2018-Jul-11 20:50N 33°58' W 077°57'0 1.2
2018-Jul-11 20:30N 33°58' W 077°56'3 3.9
2018-Jul-11 19:43N 33°56' W 077°60'3 7.1
2018-Jul-11 19:20N 33°58' W 077°57'0 1.2
2018-Jul-11 19:00N 33°58' W 077°56'3 3.7
2018-Jul-11 18:11N 33°56' W 077°60'3 9.0
2018-Jul-11 17:53N 33°58' W 077°57'3 3.4
2018-Jul-11 17:05N 33°56' W 077°59'0 0.2
2018-Jul-11 16:42N 33°56' W 077°59'3 9.8
2018-Jul-11 16:25N 33°58' W 077°57'0 0.0
2018-Jul-10 11:43N 33°58' W 077°56'  
2018-Jul-03 15:05N 33°56' W 077°59'2 8.3
2018-Jul-03 14:53N 33°57' W 077°57'1 1.8
2018-Jul-03 14:27N 33°58' W 077°56'3 5.2
2018-Jul-03 13:52N 33°56' W 077°60'1 3.3
2018-Jul-03 13:30N 33°57' W 077°58'2 1.0
2018-Jul-03 11:34N 33°58' W 077°56'0 0.0
2018-Jul-03 11:29N 33°58' W 077°56'3 6.1
2018-Jul-03 10:59N 33°56' W 077°60'1 2.3
2018-Jul-03 10:29N 33°57' W 077°58'2 3.3
2018-Jul-03 09:58N 33°58' W 077°57'  
Track history (hours):
 
Tides and Currents Weather Stations Pressure Air Temp Water Temp Dewpoint Dewpoint Depression Visibility Wind Speed Wind Dir Waves Ship Positions

Fort Fisher

Owner: STATE OF NORTH CAROLINA DEPT OF TRANSPORTATION FERRY DIVISION, Havelock, NC. More information available from US FCC via Universal Licensing System and Coast Guard Vessel Documentation Center.

Last reported at 2018-Jul-12 09:55 UTC. Time now 2018-Aug-15 02:59 UTC.
Position N 33°58' W 077°56'.
Warning: this ship's position is 33 days out of date.

Length 52 m; draft 3.2 m.

Type: Passenger vessel. MMSI: 367432480.

Date/timePositionNaut miles runAvg speedWind from/ knotsBaromVisibWave heightAir tempDewpointWater temp
2018-Jul-12 09:55N 33°58' W 077°56'0 0.0
2018-Jul-11 20:50N 33°58' W 077°57'0 1.2
2018-Jul-11 20:30N 33°58' W 077°56'3 3.9
2018-Jul-11 19:43N 33°56' W 077°60'3 7.1
2018-Jul-11 19:20N 33°58' W 077°57'0 1.2
2018-Jul-11 19:00N 33°58' W 077°56'3 3.7
2018-Jul-11 18:11N 33°56' W 077°60'3 9.0
2018-Jul-11 17:53N 33°58' W 077°57'3 3.4
2018-Jul-11 17:05N 33°56' W 077°59'0 0.2
2018-Jul-11 16:42N 33°56' W 077°59'3 9.8
2018-Jul-11 16:25N 33°58' W 077°57'0 0.0
2018-Jul-10 11:43N 33°58' W 077°56'  
2018-Jul-03 15:05N 33°56' W 077°59'2 8.3
2018-Jul-03 14:53N 33°57' W 077°57'1 1.8
2018-Jul-03 14:27N 33°58' W 077°56'3 5.2
2018-Jul-03 13:52N 33°56' W 077°60'1 3.3
2018-Jul-03 13:30N 33°57' W 077°58'2 1.0
2018-Jul-03 11:34N 33°58' W 077°56'0 0.0
2018-Jul-03 11:29N 33°58' W 077°56'3 6.1
2018-Jul-03 10:59N 33°56' W 077°60'1 2.3
2018-Jul-03 10:29N 33°57' W 077°58'2 3.3
2018-Jul-03 09:58N 33°58' W 077°57'  

Dump ship's entire track history